createdAt,value
2022-11-19T00:02:01.344Z,17.55
2022-11-19T00:04:29.172Z,13.52
2022-11-19T00:06:56.942Z,12.75
2022-11-19T00:09:24.677Z,13.32
2022-11-19T00:12:11.551Z,17.92
2022-11-19T00:14:39.767Z,11.30
2022-11-19T00:17:07.689Z,15.70
2022-11-19T00:19:35.401Z,18.08
2022-11-19T00:22:03.025Z,17.17
2022-11-19T00:24:30.729Z,15.48
2022-11-19T00:26:58.745Z,13.88
2022-11-19T00:29:26.368Z,20.70
2022-11-19T00:31:53.925Z,15.98
2022-11-19T00:34:21.710Z,13.70
2022-11-19T00:36:50.941Z,12.30
2022-11-19T00:39:19.431Z,19.75
2022-11-19T00:41:47.443Z,18.42
2022-11-19T00:44:15.060Z,17.98
2022-11-19T00:46:43.262Z,17.08
2022-11-19T00:49:11.683Z,16.67
2022-11-19T00:51:39.521Z,14.80
2022-11-19T00:54:07.337Z,6.10
2022-11-19T00:56:35.311Z,14.05
2022-11-19T00:59:04.288Z,11.93
2022-11-19T01:01:45.007Z,17.67
2022-11-19T01:04:20.636Z,14.48
2022-11-19T01:06:50.971Z,16.02
2022-11-19T01:09:21.881Z,8.82
2022-11-19T01:11:58.038Z,17.48
2022-11-19T01:14:28.408Z,14.55
2022-11-19T01:17:04.160Z,17.75
2022-11-19T01:19:38.586Z,18.48
2022-11-19T01:22:12.667Z,14.90
2022-11-19T01:24:41.103Z,8.48
2022-11-19T01:27:08.701Z,11.48
2022-11-19T01:29:36.779Z,12.50
2022-11-19T01:32:08.040Z,14.50
2022-11-19T01:34:46.110Z,11.55
2022-11-19T01:37:14.340Z,12.75
2022-11-19T01:39:41.919Z,11.35
2022-11-19T01:42:48.110Z,15.52
2022-11-19T01:45:31.826Z,14.65
2022-11-19T01:48:30.425Z,17.00
2022-11-19T01:51:29.786Z,14.95
2022-11-19T01:54:01.816Z,8.70
2022-11-19T01:56:30.693Z,10.27
2022-11-19T01:59:07.366Z,9.85
2022-11-19T02:01:35.184Z,13.57
2022-11-19T02:04:04.643Z,11.38
2022-11-19T02:06:34.376Z,13.00
2022-11-19T02:09:02.195Z,11.15
2022-11-19T02:11:44.579Z,9.88
2022-11-19T02:14:18.423Z,7.90
2022-11-19T02:17:02.207Z,16.50
2022-11-19T02:20:03.115Z,11.05
2022-11-19T02:22:31.179Z,14.35
2022-11-19T02:25:24.626Z,11.52
2022-11-19T02:28:13.855Z,12.07
2022-11-19T02:30:49.782Z,16.55
2022-11-19T02:33:29.593Z,14.48
2022-11-19T02:36:20.456Z,9.63
2022-11-19T02:38:59.425Z,11.25
2022-11-19T02:41:36.054Z,17.00
2022-11-19T02:44:35.938Z,22.23
2022-11-19T02:47:08.196Z,9.33
2022-11-19T02:49:41.387Z,23.08
2022-11-19T02:52:09.768Z,18.25
2022-11-19T02:54:37.825Z,13.57
2022-11-19T02:57:05.640Z,10.23
2022-11-19T03:00:17.117Z,14.60
2022-11-19T03:03:13.311Z,8.52
2022-11-19T03:05:48.659Z,9.70
2022-11-19T03:08:16.942Z,13.73
2022-11-19T03:11:12.853Z,14.23
2022-11-19T03:14:47.927Z,10.23
2022-11-19T03:18:04.321Z,14.43
2022-11-19T03:20:43.659Z,13.55
2022-11-19T03:23:19.189Z,11.93
2022-11-19T03:26:13.086Z,10.70
2022-11-19T03:28:44.355Z,12.63
2022-11-19T03:31:13.556Z,11.63
2022-11-19T03:33:53.041Z,9.73
2022-11-19T03:36:26.521Z,12.98
2022-11-19T03:39:12.775Z,14.82
2022-11-19T03:41:41.970Z,14.02
2022-11-19T03:44:35.766Z,10.30
2022-11-19T03:47:11.609Z,12.43
2022-11-19T03:49:43.008Z,14.93
2022-11-19T03:52:17.648Z,10.73
2022-11-19T03:54:45.706Z,13.10
2022-11-19T03:57:17.167Z,15.13
2022-11-19T03:59:45.229Z,11.98
2022-11-19T04:02:14.684Z,14.82
2022-11-19T04:04:42.564Z,16.92
2022-11-19T04:07:16.002Z,21.42
2022-11-19T04:09:43.960Z,11.90
2022-11-19T04:12:16.845Z,22.15
2022-11-19T04:14:45.322Z,13.65
2022-11-19T04:17:13.715Z,14.38
2022-11-19T04:19:41.184Z,15.95
2022-11-19T04:22:09.540Z,21.27
2022-11-19T04:24:37.519Z,20.08
2022-11-19T04:27:05.526Z,21.05
2022-11-19T04:29:33.503Z,14.27
2022-11-19T04:32:01.052Z,18.25
2022-11-19T04:34:28.731Z,12.63
2022-11-19T04:36:56.351Z,10.63
2022-11-19T04:39:23.984Z,17.60
2022-11-19T04:41:51.615Z,11.02
2022-11-19T04:44:19.270Z,9.05
2022-11-19T04:46:46.913Z,13.73
2022-11-19T04:49:14.641Z,12.95
2022-11-19T04:51:42.196Z,13.18
2022-11-19T04:54:10.009Z,14.60
2022-11-19T04:56:37.722Z,11.80
2022-11-19T04:59:05.798Z,10.57
2022-11-19T05:01:33.477Z,10.13
2022-11-19T05:04:01.598Z,10.98
2022-11-19T05:06:29.525Z,12.18
2022-11-19T05:08:56.994Z,9.80
2022-11-19T05:11:24.657Z,11.18
2022-11-19T05:13:52.727Z,8.73
2022-11-19T05:16:20.672Z,10.70
2022-11-19T05:18:48.171Z,11.80
2022-11-19T05:21:16.206Z,10.32
2022-11-19T05:23:44.063Z,11.30
2022-11-19T05:26:11.625Z,8.75
2022-11-19T05:28:40.147Z,12.75
2022-11-19T05:31:09.294Z,8.90
2022-11-19T05:33:36.958Z,9.85
2022-11-19T05:36:04.881Z,13.95
2022-11-19T05:38:32.478Z,12.88
2022-11-19T05:41:11.245Z,17.42
2022-11-19T05:43:40.357Z,8.95
2022-11-19T05:46:08.118Z,11.30
2022-11-19T05:48:35.798Z,13.80
2022-11-19T05:51:03.873Z,12.43
2022-11-19T05:53:31.757Z,11.40
2022-11-19T05:55:59.681Z,8.88
2022-11-19T05:58:27.824Z,13.25
2022-11-19T06:00:59.381Z,9.05
2022-11-19T06:03:27.440Z,12.40
2022-11-19T06:05:55.124Z,10.38
2022-11-19T06:08:23.122Z,13.25
2022-11-19T06:10:54.134Z,13.40
2022-11-19T06:13:21.777Z,17.88
2022-11-19T06:15:49.844Z,12.55
2022-11-19T06:18:17.693Z,10.75
2022-11-19T06:20:46.267Z,9.65
2022-11-19T06:23:14.410Z,8.70
2022-11-19T06:25:41.964Z,16.45
2022-11-19T06:28:09.630Z,16.35
2022-11-19T06:30:37.750Z,14.52
2022-11-19T06:33:05.209Z,15.25
2022-11-19T06:35:32.858Z,7.90
2022-11-19T06:38:00.974Z,9.07
2022-11-19T06:40:28.914Z,11.07
2022-11-19T06:42:56.592Z,9.57
2022-11-19T06:45:24.345Z,9.25
2022-11-19T06:47:51.921Z,9.63
2022-11-19T06:50:19.945Z,13.07
2022-11-19T06:52:47.565Z,11.88
2022-11-19T06:55:15.633Z,16.05
2022-11-19T06:57:43.203Z,12.55
2022-11-19T07:00:12.362Z,10.98
2022-11-19T07:02:41.146Z,8.68
2022-11-19T07:05:08.992Z,16.00
2022-11-19T07:07:36.796Z,17.23
2022-11-19T07:10:04.651Z,12.88
2022-11-19T07:12:32.296Z,13.43
2022-11-19T07:15:03.933Z,9.07
2022-11-19T07:17:34.887Z,17.13
2022-11-19T07:20:02.458Z,8.52
2022-11-19T07:22:30.325Z,18.05
2022-11-19T07:24:58.016Z,9.00
2022-11-19T07:27:25.861Z,20.23
2022-11-19T07:30:13.079Z,9.57
2022-11-19T07:32:45.152Z,20.75
2022-11-19T07:35:13.104Z,12.07
2022-11-19T07:37:53.372Z,12.48
2022-11-19T07:40:30.542Z,16.75
2022-11-19T07:43:02.045Z,8.48
2022-11-19T07:45:34.970Z,12.02
2022-11-19T07:48:02.759Z,14.40
2022-11-19T07:50:32.531Z,16.05
2022-11-19T07:53:00.600Z,12.65
2022-11-19T07:55:28.295Z,8.35
2022-11-19T07:58:05.881Z,16.15
2022-11-19T08:00:33.780Z,14.93
2022-11-19T08:03:02.675Z,12.43
2022-11-19T08:05:30.707Z,9.00
2022-11-19T08:07:58.277Z,16.25
2022-11-19T08:10:31.422Z,11.60
2022-11-19T08:13:05.154Z,11.13
2022-11-19T08:15:37.841Z,15.48
2022-11-19T08:18:16.403Z,9.20
2022-11-19T08:20:48.823Z,11.40
2022-11-19T08:23:16.411Z,8.52
2022-11-19T08:25:44.804Z,11.02
2022-11-19T08:28:12.970Z,8.93
2022-11-19T08:30:41.849Z,12.77
2022-11-19T08:33:09.835Z,9.52
2022-11-19T08:35:40.838Z,11.05
2022-11-19T08:38:20.830Z,10.35
2022-11-19T08:40:55.010Z,13.70
2022-11-19T08:43:22.785Z,12.98
2022-11-19T08:45:54.456Z,15.35
2022-11-19T08:48:22.616Z,9.48
2022-11-19T08:50:50.715Z,11.23
2022-11-19T08:53:18.882Z,14.85
2022-11-19T08:55:51.767Z,11.05
2022-11-19T08:58:22.738Z,9.43
2022-11-19T09:00:51.578Z,12.32
2022-11-19T09:03:21.781Z,14.63
2022-11-19T09:05:49.965Z,13.70
2022-11-19T09:08:17.624Z,13.55
2022-11-19T09:10:45.423Z,12.52
2022-11-19T09:13:13.266Z,14.80
2022-11-19T09:15:41.097Z,14.85
2022-11-19T09:18:09.109Z,13.32
2022-11-19T09:20:36.799Z,10.32
2022-11-19T09:23:04.516Z,10.98
2022-11-19T09:25:33.451Z,8.60
2022-11-19T09:28:01.307Z,13.75
2022-11-19T09:30:28.926Z,9.93
2022-11-19T09:33:00.056Z,13.43
2022-11-19T09:35:27.663Z,13.10
2022-11-19T09:37:55.715Z,7.57
2022-11-19T09:40:25.877Z,16.55
2022-11-19T09:43:20.150Z,13.25
2022-11-19T09:45:57.746Z,12.40
2022-11-19T09:48:37.486Z,15.07
2022-11-19T09:51:08.975Z,15.30
2022-11-19T09:53:53.924Z,17.55
2022-11-19T09:56:41.678Z,12.80
2022-11-19T09:59:20.634Z,8.23
2022-11-19T10:01:48.280Z,13.77
2022-11-19T10:04:22.354Z,12.10
2022-11-19T10:06:59.461Z,10.55
2022-11-19T10:10:06.483Z,18.23
2022-11-19T10:12:37.193Z,18.13
2022-11-19T10:15:30.924Z,14.13
2022-11-19T10:18:17.448Z,14.95
2022-11-19T10:21:11.048Z,13.63
2022-11-19T10:23:50.183Z,11.23
2022-11-19T10:26:23.001Z,10.10
2022-11-19T10:29:00.569Z,12.85
2022-11-19T10:31:43.620Z,16.90
2022-11-19T10:34:15.850Z,11.15
2022-11-19T10:37:08.607Z,11.35
2022-11-19T10:39:40.577Z,15.57
2022-11-19T10:42:31.660Z,12.93
2022-11-19T10:45:05.118Z,12.43
2022-11-19T10:47:41.041Z,11.57
2022-11-19T10:50:20.859Z,26.00
2022-11-19T10:53:00.911Z,16.97
2022-11-19T10:55:30.232Z,13.93
2022-11-19T10:58:29.624Z,10.80
2022-11-19T11:01:03.268Z,15.95
2022-11-19T11:03:37.125Z,16.13
2022-11-19T11:06:07.580Z,12.15
2022-11-19T11:08:48.749Z,8.63
2022-11-19T11:11:25.049Z,11.32
2022-11-19T11:14:28.375Z,9.38
2022-11-19T11:16:56.840Z,16.15
2022-11-19T11:19:25.284Z,10.10
2022-11-19T11:21:54.806Z,10.15
2022-11-19T11:24:30.459Z,12.63
2022-11-19T11:27:22.793Z,13.20
2022-11-19T11:30:15.617Z,14.90
2022-11-19T11:32:43.938Z,12.27
2022-11-19T11:35:34.005Z,5.38
2022-11-19T11:38:03.182Z,20.58
2022-11-19T11:40:31.597Z,9.35
2022-11-19T11:42:59.488Z,12.75
2022-11-19T11:45:36.344Z,11.40
2022-11-19T11:48:08.932Z,11.32
2022-11-19T11:50:37.447Z,12.07
2022-11-19T11:53:09.619Z,13.50
2022-11-19T11:55:38.816Z,9.63
2022-11-19T11:58:25.316Z,8.55
2022-11-19T12:01:15.405Z,14.15
2022-11-19T12:06:26.551Z,11.13
2022-11-19T12:09:20.652Z,7.88
2022-11-19T12:12:14.804Z,12.15
2022-11-19T12:15:00.078Z,8.60
2022-11-19T12:17:48.586Z,18.15
2022-11-19T12:20:31.053Z,10.25
2022-11-19T12:23:15.646Z,7.10
2022-11-19T12:26:30.525Z,7.95
2022-11-19T12:29:16.122Z,11.15
2022-11-19T12:32:01.990Z,13.35
2022-11-19T12:35:00.090Z,14.98
2022-11-19T12:37:54.848Z,10.10
2022-11-19T12:40:53.278Z,8.95
2022-11-19T12:43:51.523Z,11.38
2022-11-19T12:46:40.492Z,13.23
2022-11-19T12:49:20.237Z,9.15
2022-11-19T12:52:12.515Z,18.83
2022-11-19T12:54:53.859Z,10.95
2022-11-19T12:57:30.482Z,7.38
2022-11-19T13:00:15.133Z,11.07
2022-11-19T13:03:00.570Z,7.93
2022-11-19T13:05:40.555Z,6.75
2022-11-19T13:08:20.363Z,7.40
2022-11-19T13:11:21.982Z,6.03
2022-11-19T13:13:59.546Z,8.38
2022-11-19T13:16:31.626Z,12.57
2022-11-19T13:19:15.625Z,8.30
2022-11-19T13:22:15.955Z,12.30
2022-11-19T13:24:58.047Z,9.05
2022-11-19T13:27:29.232Z,9.90
2022-11-19T13:30:06.417Z,11.63
2022-11-19T13:32:59.247Z,9.88
2022-11-19T13:35:38.204Z,6.65
2022-11-19T13:38:19.694Z,14.05
2022-11-19T13:40:59.596Z,7.03
2022-11-19T13:43:50.857Z,10.88
2022-11-19T13:47:06.836Z,10.18
2022-11-19T13:49:48.952Z,11.73
2022-11-19T13:52:28.908Z,6.07
2022-11-19T13:55:00.912Z,7.72
2022-11-19T13:57:37.953Z,9.32
2022-11-19T14:00:30.180Z,7.00
2022-11-19T14:03:50.833Z,16.13
2022-11-19T14:06:32.897Z,5.07
2022-11-19T14:09:34.948Z,9.98
2022-11-19T14:12:46.078Z,7.03
2022-11-19T14:15:38.476Z,7.63
2022-11-19T14:18:24.872Z,8.10
2022-11-19T14:21:11.277Z,6.32
2022-11-19T14:24:07.950Z,5.93
2022-11-19T14:26:42.245Z,9.82
2022-11-19T14:29:19.450Z,7.25
2022-11-19T14:32:08.052Z,11.90
2022-11-19T14:34:59.360Z,4.90
2022-11-19T14:37:41.604Z,9.60
2022-11-19T14:40:21.603Z,8.18
2022-11-19T14:43:21.316Z,9.27
2022-11-19T14:46:08.773Z,11.00
2022-11-19T14:48:39.247Z,8.43
2022-11-19T14:51:16.902Z,6.65
2022-11-19T14:53:52.836Z,10.98
2022-11-19T14:56:23.635Z,11.27
2022-11-19T14:59:11.380Z,7.28
2022-11-19T15:01:57.949Z,5.22
2022-11-19T15:04:45.345Z,10.18
2022-11-19T15:07:19.868Z,6.35
2022-11-19T15:10:33.938Z,14.07
2022-11-19T15:13:24.031Z,6.10
2022-11-19T15:15:55.877Z,7.18
2022-11-19T15:18:42.056Z,8.20
2022-11-19T15:21:45.785Z,11.45
2022-11-19T15:24:13.921Z,7.57
2022-11-19T15:27:00.072Z,10.80
2022-11-19T15:29:46.359Z,11.65
2022-11-19T15:32:20.799Z,13.30
2022-11-19T15:35:10.331Z,10.00
2022-11-19T15:38:02.032Z,22.65
2022-11-19T15:40:34.172Z,9.18
2022-11-19T15:43:40.383Z,13.82
2022-11-19T15:46:17.971Z,11.07
2022-11-19T15:48:57.176Z,16.10
2022-11-19T15:51:25.281Z,10.40
2022-11-19T15:54:05.203Z,15.88
2022-11-19T15:56:40.648Z,14.07
2022-11-19T15:59:09.029Z,29.05
2022-11-19T16:01:37.312Z,17.25
2022-11-19T16:04:08.976Z,13.57
2022-11-19T16:06:42.800Z,17.38
2022-11-19T16:09:19.264Z,16.65
2022-11-19T16:12:05.900Z,17.65
2022-11-19T16:14:52.259Z,15.00
2022-11-19T16:17:43.544Z,11.95
2022-11-19T16:20:30.420Z,18.52
2022-11-19T16:23:11.678Z,17.92
2022-11-19T16:25:40.589Z,13.70
2022-11-19T16:28:18.539Z,10.93
2022-11-19T16:30:48.604Z,15.07
2022-11-19T16:33:24.431Z,12.63
2022-11-19T16:36:09.887Z,19.23
2022-11-19T16:38:40.492Z,13.20
2022-11-19T16:44:03.128Z,16.33
2022-11-19T16:46:37.342Z,13.38
2022-11-19T16:49:13.096Z,15.70
2022-11-19T16:51:55.188Z,17.75
2022-11-19T16:54:50.844Z,18.27
2022-11-19T16:57:21.979Z,16.83
2022-11-19T16:59:54.495Z,17.48
2022-11-19T17:02:28.424Z,18.92
2022-11-19T17:05:07.797Z,16.63
2022-11-19T17:07:36.668Z,13.55
2022-11-19T17:10:31.489Z,10.25
2022-11-19T17:13:15.009Z,18.65
2022-11-19T17:15:43.819Z,18.67
2022-11-19T17:18:21.239Z,13.77
2022-11-19T17:20:58.036Z,19.65
2022-11-19T17:23:47.457Z,18.73
2022-11-19T17:26:21.200Z,17.90
2022-11-19T17:29:07.954Z,27.08
2022-11-19T17:31:36.038Z,18.15
2022-11-19T17:34:19.426Z,21.95
2022-11-19T17:36:47.843Z,14.02
2022-11-19T17:42:13.800Z,16.98
2022-11-19T17:44:42.333Z,21.08
2022-11-19T17:47:21.294Z,19.50
2022-11-19T17:49:50.544Z,16.55
2022-11-19T17:52:26.518Z,19.35
2022-11-19T17:54:58.130Z,23.83
2022-11-19T17:57:25.853Z,17.70
2022-11-19T17:59:53.558Z,24.90
2022-11-19T18:02:21.277Z,19.33
2022-11-19T18:04:49.712Z,23.98
2022-11-19T18:07:17.356Z,16.35
2022-11-19T18:09:45.280Z,19.98
2022-11-19T18:12:19.146Z,23.13
2022-11-19T18:14:47.109Z,21.23
2022-11-19T18:17:15.946Z,21.70
2022-11-19T18:19:43.865Z,21.23
2022-11-19T18:22:20.049Z,24.20
2022-11-19T18:24:49.565Z,25.38
2022-11-19T18:27:17.557Z,22.70
2022-11-19T18:29:45.327Z,23.73
2022-11-19T18:32:15.974Z,27.75
2022-11-19T18:37:12.754Z,24.88
2022-11-19T18:39:40.555Z,27.27
2022-11-19T18:42:12.027Z,24.05
2022-11-19T18:44:41.865Z,24.25
2022-11-19T18:47:12.921Z,24.17
2022-11-19T18:49:41.095Z,21.15
2022-11-19T18:52:11.742Z,29.40
2022-11-19T18:57:11.167Z,25.25
2022-11-19T18:59:41.776Z,19.38
2022-11-19T19:02:11.175Z,22.27
2022-11-19T19:04:39.002Z,21.80
2022-11-19T19:07:07.297Z,21.23
2022-11-19T19:09:43.564Z,24.27
2022-11-19T19:12:21.592Z,22.30
2022-11-19T19:14:51.829Z,25.20
2022-11-19T19:19:50.780Z,22.73
2022-11-19T19:22:18.622Z,25.67
2022-11-19T19:24:46.974Z,26.25
2022-11-19T19:27:15.389Z,29.83
2022-11-19T19:29:43.134Z,29.70
2022-11-19T19:32:11.390Z,27.08
2022-11-19T19:34:39.401Z,25.08
2022-11-19T19:37:09.540Z,27.65
2022-11-19T19:39:42.366Z,26.83
2022-11-19T19:42:10.240Z,27.00
2022-11-19T19:44:39.213Z,25.52
2022-11-19T19:47:09.364Z,25.02
2022-11-19T19:49:39.000Z,27.95
2022-11-19T19:52:07.251Z,31.30
2022-11-19T19:54:40.450Z,29.58
2022-11-19T19:57:15.754Z,29.02
2022-11-19T19:59:43.634Z,31.80
2022-11-19T20:02:15.358Z,22.98
2022-11-19T20:04:44.846Z,27.50
2022-11-19T20:07:12.939Z,31.55
2022-11-19T20:09:40.997Z,21.60
2022-11-19T20:12:08.898Z,27.63
2022-11-19T20:14:36.996Z,24.08
2022-11-19T20:17:08.481Z,25.88
2022-11-19T20:19:36.325Z,24.95
2022-11-19T20:22:04.169Z,28.85
2022-11-19T20:24:32.071Z,23.45
2022-11-19T20:26:59.896Z,27.58
2022-11-19T20:29:28.472Z,28.30
2022-11-19T20:31:56.431Z,26.65
2022-11-19T20:34:29.813Z,27.88
2022-11-19T20:37:00.515Z,28.90
2022-11-19T20:39:32.166Z,27.48
2022-11-19T20:42:18.431Z,29.02
2022-11-19T20:44:46.224Z,26.98
2022-11-19T20:47:17.014Z,29.23
2022-11-19T20:49:44.718Z,36.08
2022-11-19T20:52:13.481Z,25.77
2022-11-19T20:54:41.977Z,24.67
2022-11-19T20:57:09.648Z,29.27
2022-11-19T20:59:37.320Z,25.65
2022-11-19T21:02:05.561Z,31.33
2022-11-19T21:04:36.589Z,28.90
2022-11-19T21:07:04.957Z,23.50
2022-11-19T21:09:32.624Z,24.75
2022-11-19T21:12:00.224Z,26.90
2022-11-19T21:14:28.378Z,25.67
2022-11-19T21:16:56.159Z,30.85
2022-11-19T21:19:24.179Z,29.63
2022-11-19T21:21:52.077Z,26.45
2022-11-19T21:24:19.801Z,25.45
2022-11-19T21:26:49.904Z,33.45
2022-11-19T21:29:17.847Z,36.20
2022-11-19T21:31:48.082Z,35.45
2022-11-19T21:34:22.768Z,32.10
2022-11-19T21:36:51.043Z,25.65
2022-11-19T21:39:22.037Z,32.20
2022-11-19T21:41:52.159Z,37.67
2022-11-19T21:44:22.996Z,33.78
2022-11-19T21:46:51.136Z,36.15
2022-11-19T21:49:19.771Z,30.08
2022-11-19T21:51:49.188Z,28.27
2022-11-19T21:54:17.344Z,29.48
2022-11-19T21:56:45.351Z,32.45
2022-11-19T21:59:13.422Z,35.70
2022-11-19T22:01:41.243Z,33.03
2022-11-19T22:04:09.142Z,36.67
2022-11-19T22:06:36.849Z,34.10
2022-11-19T22:09:04.713Z,32.03
2022-11-19T22:11:32.563Z,36.05
2022-11-19T22:14:05.950Z,34.65
2022-11-19T22:16:36.380Z,29.90
2022-11-19T22:19:05.864Z,31.67
2022-11-19T22:21:34.152Z,34.70
2022-11-19T22:24:02.148Z,38.38
2022-11-19T22:26:32.241Z,32.78
2022-11-19T22:28:59.851Z,41.72
2022-11-19T22:31:27.514Z,32.42
2022-11-19T22:33:55.631Z,36.50
2022-11-19T22:36:23.848Z,31.50
2022-11-19T22:38:52.392Z,31.23
2022-11-19T22:41:21.675Z,37.15
2022-11-19T22:43:50.269Z,32.17
2022-11-19T22:46:18.546Z,27.15
2022-11-19T22:48:46.365Z,32.40
2022-11-19T22:51:20.292Z,23.80
2022-11-19T22:53:49.678Z,29.02
2022-11-19T22:56:23.845Z,28.00
2022-11-19T22:58:52.844Z,28.05
2022-11-19T23:01:32.303Z,33.22
2022-11-19T23:04:02.840Z,27.55
2022-11-19T23:08:58.192Z,30.58
2022-11-19T23:11:44.590Z,25.70
2022-11-19T23:14:15.714Z,28.52
2022-11-19T23:16:44.118Z,25.02
2022-11-19T23:19:13.858Z,22.25
2022-11-19T23:21:41.853Z,25.40
2022-11-19T23:24:10.500Z,32.42
2022-11-19T23:26:38.304Z,23.25
2022-11-19T23:29:06.754Z,27.67
2022-11-19T23:31:37.331Z,26.25
2022-11-19T23:34:05.219Z,27.73
2022-11-19T23:36:42.596Z,27.75
2022-11-19T23:39:15.545Z,28.77
2022-11-19T23:41:44.141Z,28.90
2022-11-19T23:44:12.071Z,25.85
2022-11-19T23:46:40.141Z,28.35
2022-11-19T23:49:07.734Z,29.30
2022-11-19T23:51:37.522Z,25.85
2022-11-19T23:54:06.123Z,25.80
2022-11-19T23:56:35.934Z,22.30
2022-11-19T23:59:05.069Z,22.85
